Time,TemperatureF,DewpointF,PressureIn,WindDirection,WindDirectionDegrees,WindSpeedMPH,WindSpeedGustMPH,Humidity,HourlyPrecipIn,Conditions,Clouds,dailyrainin,SoftwareType,DateUTC
2013-02-22 00:12:00,33.1,27.0,30.11,SE,136,5.0,10.0,77,0.00,,,0.00,weatherlink.com 1.10,2013-02-22 05:12:00,
2013-02-22 00:27:00,33.2,26.0,30.12,SSE,160,4.0,10.0,75,0.00,,,0.00,weatherlink.com 1.10,2013-02-22 05:27:00,
2013-02-22 00:42:00,33.1,26.0,30.13,South,180,6.0,9.0,75,0.00,,,0.00,weatherlink.com 1.10,2013-02-22 05:42:00,
2013-02-22 00:57:00,33.1,26.0,30.14,SE,135,5.0,8.0,74,0.00,,,0.00,weatherlink.com 1.10,2013-02-22 05:57:00,
2013-02-22 01:12:00,33.1,25.0,30.14,South,174,7.0,11.0,72,0.00,,,0.00,weatherlink.com 1.10,2013-02-22 06:12:00,
2013-02-22 01:27:00,33.1,25.0,30.15,South,169,3.0,12.0,72,0.00,,,0.00,weatherlink.com 1.10,2013-02-22 06:27:00,
2013-02-22 01:42:00,33.0,25.0,30.16,SE,143,3.0,9.0,71,0.00,,,0.00,weatherlink.com 1.10,2013-02-22 06:42:00,
2013-02-22 01:57:00,32.8,24.0,30.18,SSE,158,4.0,9.0,71,0.00,,,0.00,weatherlink.com 1.10,2013-02-22 06:57:00,
2013-02-22 02:12:00,32.8,24.0,30.18,SE,138,6.0,11.0,70,0.00,,,0.00,weatherlink.com 1.10,2013-02-22 07:12:00,
2013-02-22 02:27:00,32.5,24.0,30.20,SE,144,3.0,8.0,71,0.00,,,0.00,weatherlink.com 1.10,2013-02-22 07:27:00,
2013-02-22 02:42:00,32.3,24.0,30.20,SE,126,2.0,7.0,72,0.00,,,0.00,weatherlink.com 1.10,2013-02-22 07:42:00,
2013-02-22 02:57:00,31.7,25.0,30.20,SE,133,2.0,7.0,75,0.00,,,0.00,weatherlink.com 1.10,2013-02-22 07:57:00,
2013-02-22 03:12:00,31.3,25.0,30.21,SE,135,2.0,7.0,76,0.00,,,0.00,weatherlink.com 1.10,2013-02-22 08:12:00,
2013-02-22 03:27:00,31.0,25.0,30.21,SE,133,6.0,9.0,77,0.00,,,0.00,weatherlink.com 1.10,2013-02-22 08:27:00,
2013-02-22 03:42:00,30.7,24.0,30.21,ESE,103,3.0,8.0,77,0.00,,,0.00,weatherlink.com 1.10,2013-02-22 08:42:00,
2013-02-22 03:58:00,30.5,24.0,30.23,SE,128,2.0,10.0,77,0.00,,,0.00,weatherlink.com 1.10,2013-02-22 08:58:00,
2013-02-22 04:13:00,30.2,24.0,30.23,SSE,148,4.0,8.0,77,0.00,,,0.00,weatherlink.com 1.10,2013-02-22 09:13:00,
2013-02-22 04:28:00,30.0,24.0,30.24,SE,142,5.0,7.0,78,0.00,,,0.00,weatherlink.com 1.10,2013-02-22 09:28:00,
2013-02-22 04:43:00,29.7,24.0,30.24,SE,138,4.0,8.0,78,0.00,,,0.00,weatherlink.com 1.10,2013-02-22 09:43:00,
2013-02-22 04:58:00,29.4,23.0,30.25,SSE,155,4.0,7.0,78,0.00,,,0.00,weatherlink.com 1.10,2013-02-22 09:58:00,
2013-02-22 05:13:00,29.2,23.0,30.25,SE,142,2.0,10.0,78,0.00,,,0.00,weatherlink.com 1.10,2013-02-22 10:13:00,
2013-02-22 05:28:00,29.0,23.0,30.25,SSE,147,4.0,9.0,78,0.00,,,0.00,weatherlink.com 1.10,2013-02-22 10:28:00,
2013-02-22 05:43:00,29.0,23.0,30.27,SE,138,3.0,8.0,77,0.00,,,0.00,weatherlink.com 1.10,2013-02-22 10:43:00,
2013-02-22 05:58:00,28.9,23.0,30.27,SSE,156,6.0,8.0,77,0.00,,,0.00,weatherlink.com 1.10,2013-02-22 10:58:00,
2013-02-22 06:13:00,28.8,22.0,30.27,SSE,159,4.0,10.0,77,0.00,,,0.00,weatherlink.com 1.10,2013-02-22 11:13:00,
2013-02-22 06:28:00,28.7,22.0,30.28,SE,145,6.0,8.0,77,0.00,,,0.00,weatherlink.com 1.10,2013-02-22 11:28:00,
2013-02-22 06:43:00,28.8,22.0,30.29,SE,145,4.0,8.0,77,0.00,,,0.00,weatherlink.com 1.10,2013-02-22 11:43:00,
2013-02-22 06:58:00,29.4,22.0,30.30,SSE,155,3.0,7.0,75,0.00,,,0.00,weatherlink.com 1.10,2013-02-22 11:58:00,
2013-02-22 07:13:00,30.1,23.0,30.31,SSE,162,4.0,9.0,74,0.00,,,0.00,weatherlink.com 1.10,2013-02-22 12:13:00,
2013-02-22 07:28:00,30.4,23.0,30.32,SSE,155,2.0,7.0,73,0.00,,,0.00,weatherlink.com 1.10,2013-02-22 12:28:00,
2013-02-22 07:43:00,30.9,23.0,30.32,SE,131,3.0,8.0,71,0.00,,,0.00,weatherlink.com 1.10,2013-02-22 12:43:00,
2013-02-22 07:58:00,30.9,23.0,30.33,SE,144,2.0,10.0,71,0.00,,,0.00,weatherlink.com 1.10,2013-02-22 12:58:00,
2013-02-22 08:13:00,31.0,22.0,30.33,South,169,6.0,8.0,70,0.00,,,0.00,weatherlink.com 1.10,2013-02-22 13:13:00,
2013-02-22 08:28:00,31.4,22.0,30.34,SSE,160,6.0,11.0,68,0.00,,,0.00,weatherlink.com 1.10,2013-02-22 13:28:00,
2013-02-22 08:43:00,31.8,22.0,30.35,SSE,159,5.0,10.0,67,0.00,,,0.00,weatherlink.com 1.10,2013-02-22 13:43:00,
2013-02-22 08:58:00,31.9,22.0,30.36,SE,136,5.0,12.0,67,0.00,,,0.00,weatherlink.com 1.10,2013-02-22 13:58:00,
2013-02-22 09:14:00,32.4,22.0,30.36,SE,124,7.0,11.0,66,0.00,,,0.00,weatherlink.com 1.10,2013-02-22 14:14:00,
2013-02-22 09:29:00,32.7,22.0,30.36,SSE,153,5.0,10.0,66,0.00,,,0.00,weatherlink.com 1.10,2013-02-22 14:29:00,
2013-02-22 09:44:00,33.1,22.0,30.35,SE,132,4.0,12.0,65,0.00,,,0.00,weatherlink.com 1.10,2013-02-22 14:44:00,
2013-02-22 09:59:00,33.5,22.0,30.35,SE,145,9.0,10.0,63,0.00,,,0.00,weatherlink.com 1.10,2013-02-22 14:59:00,
2013-02-22 10:14:00,33.9,22.0,30.35,SE,137,2.0,8.0,63,0.00,,,0.00,weatherlink.com 1.10,2013-02-22 15:14:00,
2013-02-22 10:29:00,34.5,23.0,30.35,ESE,104,2.0,11.0,62,0.00,,,0.00,weatherlink.com 1.10,2013-02-22 15:29:00,
2013-02-22 10:44:00,35.2,23.0,30.35,SE,146,4.0,8.0,61,0.00,,,0.00,weatherlink.com 1.10,2013-02-22 15:44:00,
2013-02-22 10:59:00,35.2,22.0,30.35,SSE,157,5.0,8.0,60,0.00,,,0.00,weatherlink.com 1.10,2013-02-22 15:59:00,
2013-02-22 11:14:00,34.9,22.0,30.35,SSE,162,4.0,9.0,59,0.00,,,0.00,weatherlink.com 1.10,2013-02-22 16:14:00,
2013-02-22 11:29:00,35.5,22.0,30.34,SSE,152,6.0,10.0,58,0.00,,,0.00,weatherlink.com 1.10,2013-02-22 16:29:00,
2013-02-22 11:44:00,35.8,21.0,30.34,South,173,6.0,10.0,56,0.00,,,0.00,weatherlink.com 1.10,2013-02-22 16:44:00,
2013-02-22 11:59:00,36.3,22.0,30.33,ESE,118,4.0,7.0,57,0.00,,,0.00,weatherlink.com 1.10,2013-02-22 16:59:00,
2013-02-22 12:14:00,36.7,22.0,30.32,SSE,153,4.0,10.0,56,0.00,,,0.00,weatherlink.com 1.10,2013-02-22 17:14:00,
2013-02-22 12:29:00,36.5,21.0,30.32,SSE,156,3.0,8.0,54,0.00,,,0.00,weatherlink.com 1.10,2013-02-22 17:29:00,
2013-02-22 12:44:00,37.0,22.0,30.32,SSE,160,7.0,10.0,54,0.00,,,0.00,weatherlink.com 1.10,2013-02-22 17:44:00,
2013-02-22 12:59:00,37.5,22.0,30.32,ESE,118,3.0,8.0,53,0.00,,,0.00,weatherlink.com 1.10,2013-02-22 17:59:00,
2013-02-22 13:14:00,37.7,21.0,30.32,SSE,158,3.0,7.0,52,0.00,,,0.00,weatherlink.com 1.10,2013-02-22 18:14:00,
2013-02-22 13:29:00,38.1,21.0,30.32,SE,132,3.0,8.0,51,0.00,,,0.00,weatherlink.com 1.10,2013-02-22 18:29:00,
2013-02-22 13:44:00,38.0,21.0,30.31,SE,131,3.0,9.0,51,0.00,,,0.00,weatherlink.com 1.10,2013-02-22 18:44:00,
2013-02-22 13:59:00,38.1,21.0,30.31,SE,125,3.0,8.0,51,0.00,,,0.00,weatherlink.com 1.10,2013-02-22 18:59:00,
2013-02-22 14:14:00,37.8,21.0,30.31,SE,124,2.0,5.0,52,0.00,,,0.00,weatherlink.com 1.10,2013-02-22 19:14:00,
2013-02-22 14:29:00,37.3,21.0,30.31,SE,134,2.0,6.0,53,0.00,,,0.00,weatherlink.com 1.10,2013-02-22 19:29:00,
2013-02-22 14:44:00,37.5,21.0,30.31,SE,143,3.0,4.0,52,0.00,,,0.00,weatherlink.com 1.10,2013-02-22 19:44:00,
2013-02-22 14:59:00,38.4,22.0,30.31,SE,138,3.0,7.0,51,0.00,,,0.00,weatherlink.com 1.10,2013-02-22 19:59:00,
2013-02-22 15:14:00,38.2,21.0,30.32,SE,126,3.0,7.0,51,0.00,,,0.00,weatherlink.com 1.10,2013-02-22 20:14:00,
2013-02-22 15:29:00,38.1,21.0,30.31,SE,136,4.0,5.0,50,0.00,,,0.00,weatherlink.com 1.10,2013-02-22 20:29:00,
2013-02-22 15:44:00,37.9,21.0,30.31,SE,131,1.0,4.0,50,0.00,,,0.00,weatherlink.com 1.10,2013-02-22 20:44:00,
2013-02-22 15:59:00,37.7,21.0,30.31,SE,143,2.0,6.0,51,0.00,,,0.00,weatherlink.com 1.10,2013-02-22 20:59:00,
2013-02-22 16:14:00,37.4,21.0,30.31,SE,135,2.0,3.0,52,0.00,,,0.00,weatherlink.com 1.10,2013-02-22 21:14:00,
2013-02-22 16:29:00,36.9,21.0,30.31,SE,127,0.0,1.0,54,0.00,,,0.00,weatherlink.com 1.10,2013-02-22 21:29:00,
2013-02-22 16:44:00,36.1,22.0,30.32,SE,125,0.0,1.0,57,0.00,,,0.00,weatherlink.com 1.10,2013-02-22 21:44:00,
2013-02-22 16:59:00,35.6,23.0,30.32,ESE,111,0.0,1.0,60,0.00,,,0.00,weatherlink.com 1.10,2013-02-22 21:59:00,
2013-02-22 17:14:00,34.7,21.0,30.32,SE,128,0.0,1.0,58,0.00,,,0.00,weatherlink.com 1.10,2013-02-22 22:14:00,
2013-02-22 17:29:00,33.9,21.0,30.32,SE,128,1.0,1.0,60,0.00,,,0.00,weatherlink.com 1.10,2013-02-22 22:29:00,
2013-02-22 17:44:00,32.7,24.0,30.33,SSE,156,1.0,2.0,71,0.00,,,0.00,weatherlink.com 1.10,2013-02-22 22:44:00,
2013-02-22 17:59:00,31.7,24.0,30.34,SE,143,0.0,0.0,73,0.00,,,0.00,weatherlink.com 1.10,2013-02-22 22:59:00,
2013-02-22 18:14:00,30.6,23.0,30.33,SE,131,0.0,1.0,74,0.00,,,0.00,weatherlink.com 1.10,2013-02-22 23:14:00,
2013-02-22 18:29:00,29.6,23.0,30.33,SE,136,0.0,1.0,76,0.00,,,0.00,weatherlink.com 1.10,2013-02-22 23:29:00,
2013-02-22 18:44:00,29.0,23.0,30.33,SE,135,0.0,1.0,77,0.00,,,0.00,weatherlink.com 1.10,2013-02-22 23:44:00,
2013-02-22 18:59:00,28.7,23.0,30.33,SE,135,0.0,1.0,78,0.00,,,0.00,weatherlink.com 1.10,2013-02-22 23:59:00,
2013-02-22 19:14:00,28.4,23.0,30.33,SE,135,0.0,0.0,79,0.00,,,0.00,weatherlink.com 1.10,2013-02-23 00:14:00,
2013-02-22 19:29:00,28.2,22.0,30.34,SE,135,0.0,0.0,79,0.00,,,0.00,weatherlink.com 1.10,2013-02-23 00:29:00,
2013-02-22 19:44:00,28.1,23.0,30.33,SE,135,0.0,1.0,81,0.00,,,0.00,weatherlink.com 1.10,2013-02-23 00:44:00,
2013-02-22 19:59:00,27.8,23.0,30.34,SE,134,0.0,0.0,82,0.00,,,0.00,weatherlink.com 1.10,2013-02-23 00:59:00,
2013-02-22 20:14:00,27.6,23.0,30.34,SE,134,0.0,1.0,83,0.00,,,0.00,weatherlink.com 1.10,2013-02-23 01:14:00,
2013-02-22 20:29:00,27.2,23.0,30.35,SE,134,0.0,1.0,83,0.00,,,0.00,weatherlink.com 1.10,2013-02-23 01:29:00,
2013-02-22 20:44:00,27.0,23.0,30.35,SE,134,0.0,0.0,83,0.00,,,0.00,weatherlink.com 1.10,2013-02-23 01:44:00,
2013-02-22 20:59:00,26.5,22.0,30.35,SE,135,0.0,0.0,84,0.00,,,0.00,weatherlink.com 1.10,2013-02-23 01:59:00,
2013-02-22 21:14:00,26.3,22.0,30.35,SE,135,0.0,0.0,83,0.00,,,0.00,weatherlink.com 1.10,2013-02-23 02:14:00,
2013-02-22 21:29:00,26.3,22.0,30.36,SE,136,0.0,0.0,85,0.00,,,0.00,weatherlink.com 1.10,2013-02-23 02:29:00,
2013-02-22 21:44:00,26.3,22.0,30.36,SE,135,0.0,1.0,85,0.00,,,0.00,weatherlink.com 1.10,2013-02-23 02:44:00,
2013-02-22 21:59:00,26.2,23.0,30.35,SE,135,0.0,1.0,86,0.00,,,0.00,weatherlink.com 1.10,2013-02-23 02:59:00,
2013-02-22 22:15:00,25.8,23.0,30.35,SE,135,0.0,0.0,87,0.00,,,0.00,weatherlink.com 1.10,2013-02-23 03:15:00,
2013-02-22 22:30:00,25.7,22.0,30.35,SE,135,0.0,1.0,87,0.00,,,0.00,weatherlink.com 1.10,2013-02-23 03:30:00,
2013-02-22 22:45:00,25.4,22.0,30.35,SE,136,0.0,0.0,87,0.00,,,0.00,weatherlink.com 1.10,2013-02-23 03:45:00,
2013-02-22 23:00:00,25.8,23.0,30.34,SE,142,0.0,2.0,88,0.00,,,0.00,weatherlink.com 1.10,2013-02-23 04:00:00,
2013-02-22 23:15:00,25.6,23.0,30.34,SE,141,0.0,1.0,88,0.00,,,0.00,weatherlink.com 1.10,2013-02-23 04:15:00,
2013-02-22 23:30:00,26.1,22.0,30.34,SE,136,0.0,0.0,84,0.00,,,0.00,weatherlink.com 1.10,2013-02-23 04:30:00,
2013-02-22 23:45:00,26.3,22.0,30.35,SE,136,0.0,0.0,82,0.00,,,0.00,weatherlink.com 1.10,2013-02-23 04:45:00,